createdAt,value
2023-04-22T00:05:08.528Z,98639.53
2023-04-22T00:08:10.720Z,98634.42
2023-04-22T00:11:16.828Z,98632.94
2023-04-22T00:14:19.286Z,98632.98
2023-04-22T00:30:53.802Z,98627.58
2023-04-22T00:33:57.412Z,98629.31
2023-04-22T00:37:01.078Z,98633.36
2023-04-22T00:40:04.917Z,98637.38
2023-04-22T00:43:09.606Z,98637.89
2023-04-22T00:46:15.371Z,98639.17
2023-04-22T00:49:20.411Z,98628.27
2023-04-22T00:52:23.565Z,98629.13
2023-04-22T00:55:27.717Z,98634.06
2023-04-22T00:58:32.326Z,98633.40
2023-04-22T01:01:36.674Z,98633.21
2023-04-22T01:04:40.373Z,98633.11
2023-04-22T01:07:43.669Z,98635.42
2023-04-22T01:10:47.522Z,98639.04
2023-04-22T01:13:52.004Z,98641.91
2023-04-22T01:16:56.400Z,98642.65
2023-04-22T01:20:00.170Z,98638.73
2023-04-22T01:23:10.403Z,98638.14
2023-04-22T01:26:13.771Z,98638.61
2023-04-22T01:29:17.809Z,98634.71
2023-04-22T01:32:21.345Z,98631.83
2023-04-22T01:35:24.946Z,98635.38
2023-04-22T01:38:29.751Z,98637.68
2023-04-22T01:41:34.585Z,98635.77
2023-04-22T01:44:37.885Z,98634.91
2023-04-22T01:47:41.579Z,98636.45
2023-04-22T01:50:45.877Z,98636.42
2023-04-22T01:53:51.393Z,98639.48
2023-04-22T01:56:56.223Z,98641.34
2023-04-22T02:00:01.228Z,98646.89
2023-04-22T02:04:50.760Z,98646.52
2023-04-22T02:07:55.046Z,98646.42
2023-04-22T02:11:00.681Z,98650.08
2023-04-22T02:14:04.403Z,98650.02
2023-04-22T02:17:08.096Z,98649.29
2023-04-22T02:20:12.396Z,98649.30
2023-04-22T02:23:16.858Z,98651.70
2023-04-22T02:26:21.173Z,98646.57
2023-04-22T02:29:26.313Z,98649.99
2023-04-22T02:32:33.556Z,98645.29
2023-04-22T02:35:37.105Z,98647.98
2023-04-22T02:38:41.528Z,98646.86
2023-04-22T02:41:44.644Z,98647.57
2023-04-22T02:44:48.625Z,98645.67
2023-04-22T02:47:52.039Z,98642.07
2023-04-22T02:50:56.139Z,98641.88
2023-04-22T02:54:00.560Z,98643.27
2023-04-22T02:57:04.545Z,98648.55
2023-04-22T03:00:11.105Z,98649.23
2023-04-22T03:03:14.764Z,98650.98
2023-04-22T03:06:18.679Z,98652.14
2023-04-22T03:09:22.593Z,98654.10
2023-04-22T03:12:25.996Z,98657.23
2023-04-22T03:15:29.477Z,98659.77
2023-04-22T03:18:32.877Z,98660.37
2023-04-22T03:21:36.479Z,98666.48
2023-04-22T03:24:39.948Z,98668.11
2023-04-22T03:27:43.967Z,98668.59
2023-04-22T03:30:47.709Z,98671.36
2023-04-22T03:33:51.842Z,98669.54
2023-04-22T03:37:02.787Z,98676.89
2023-04-22T03:40:07.525Z,98682.71
2023-04-22T03:43:12.364Z,98685.18
2023-04-22T03:46:17.249Z,98683.36
2023-04-22T03:49:26.825Z,98689.66
2023-04-22T03:52:31.571Z,98691.41
2023-04-22T03:55:35.597Z,98695.70
2023-04-22T03:58:39.004Z,98699.96
2023-04-22T04:05:10.926Z,98706.17
2023-04-22T04:08:14.269Z,98708.38
2023-04-22T04:11:17.782Z,98709.50
2023-04-22T04:14:21.398Z,98711.77
2023-04-22T04:17:26.090Z,98716.02
2023-04-22T04:20:29.094Z,98721.23
2023-04-22T04:23:31.783Z,98722.27
2023-04-22T04:26:34.288Z,98723.61
2023-04-22T04:29:44.107Z,98725.09
2023-04-22T04:32:53.060Z,98731.86
2023-04-22T04:35:55.513Z,98731.85
2023-04-22T04:39:01.778Z,98732.32
2023-04-22T04:42:05.186Z,98736.64
2023-04-22T04:45:11.178Z,98739.45
2023-04-22T04:48:14.333Z,98742.14
2023-04-22T04:51:20.225Z,98742.59
2023-04-22T04:54:31.173Z,98742.98
2023-04-22T04:57:37.177Z,98746.17
2023-04-22T05:00:40.730Z,98746.77
2023-04-22T05:03:43.592Z,98749.87
2023-04-22T05:06:49.064Z,98751.55
2023-04-22T05:09:51.762Z,98744.45
2023-04-22T05:12:54.293Z,98751.64
2023-04-22T05:15:59.597Z,98751.63
2023-04-22T05:19:01.954Z,98748.23
2023-04-22T05:22:06.850Z,98754.47
2023-04-22T05:25:10.704Z,98750.21
2023-04-22T05:28:14.558Z,98756.66
2023-04-22T05:31:22.130Z,98757.18
2023-04-22T05:34:24.272Z,98756.81
2023-04-22T05:37:28.803Z,98751.83
2023-04-22T05:40:31.170Z,98750.12
2023-04-22T05:43:34.264Z,98753.61
2023-04-22T05:46:42.783Z,98756.42
2023-04-22T05:49:44.850Z,98755.18
2023-04-22T05:53:07.397Z,98760.02
2023-04-22T05:56:09.265Z,98759.89
2023-04-22T05:59:11.631Z,98764.35
2023-04-22T06:05:10.109Z,98763.48
2023-04-22T06:08:13.875Z,98769.45
2023-04-22T06:11:15.834Z,98766.63
2023-04-22T06:14:17.780Z,98769.93
2023-04-22T06:17:19.964Z,98772.77
2023-04-22T06:20:23.566Z,98776.92
2023-04-22T06:23:25.733Z,98772.10
2023-04-22T06:27:07.834Z,98767.89
2023-04-22T06:30:11.667Z,98771.60
2023-04-22T06:33:15.377Z,98772.30
2023-04-22T06:36:18.266Z,98773.72
2023-04-22T06:39:23.921Z,98776.94
2023-04-22T06:42:57.697Z,98780.26
2023-04-22T06:46:15.590Z,98781.90
2023-04-22T06:49:26.769Z,98784.98
2023-04-22T06:52:51.729Z,98790.75
2023-04-22T06:55:54.425Z,98792.58
2023-04-22T06:58:57.057Z,98789.31
2023-04-22T07:02:00.773Z,98795.61
2023-04-22T07:05:05.035Z,98796.59
2023-04-22T07:08:09.670Z,98795.27
2023-04-22T07:11:14.325Z,98794.09
2023-04-22T07:14:45.038Z,98795.51
2023-04-22T07:17:47.048Z,98797.85
2023-04-22T07:20:49.280Z,98801.61
2023-04-22T07:23:51.695Z,98798.59
2023-04-22T07:26:53.885Z,98806.08
2023-04-22T07:29:55.838Z,98806.71
2023-04-22T07:32:57.876Z,98803.60
2023-04-22T07:36:02.967Z,98799.20
2023-04-22T07:39:05.758Z,98802.16
2023-04-22T07:42:07.859Z,98805.31
2023-04-22T07:45:10.758Z,98809.08
2023-04-22T07:48:12.995Z,98810.59
2023-04-22T07:51:15.112Z,98814.90
2023-04-22T07:54:17.346Z,98817.65
2023-04-22T07:57:22.142Z,98818.18
2023-04-22T08:00:24.275Z,98822.00
2023-04-22T08:03:26.846Z,98822.23
2023-04-22T08:06:31.615Z,98825.88
2023-04-22T08:09:33.540Z,98826.66
2023-04-22T08:12:38.204Z,98826.05
2023-04-22T08:15:40.358Z,98829.77
2023-04-22T08:18:43.401Z,98830.99
2023-04-22T08:21:46.177Z,98827.80
2023-04-22T08:24:48.108Z,98826.00
2023-04-22T08:27:51.172Z,98829.33
2023-04-22T08:30:53.112Z,98828.98
2023-04-22T08:33:55.279Z,98824.55
2023-04-22T08:36:57.373Z,98823.20
2023-04-22T08:40:01.284Z,98820.88
2023-04-22T08:43:05.273Z,98827.33
2023-04-22T08:46:11.110Z,98831.59
2023-04-22T08:49:31.641Z,98828.96
2023-04-22T08:52:34.225Z,98829.19
2023-04-22T08:55:37.079Z,98824.65
2023-04-22T08:58:42.913Z,98821.84
2023-04-22T09:01:49.629Z,98820.63
2023-04-22T09:04:56.019Z,98820.16
2023-04-22T09:07:59.400Z,98822.58
2023-04-22T09:11:03.211Z,98819.84
2023-04-22T09:14:06.251Z,98819.41
2023-04-22T09:17:10.321Z,98820.80
2023-04-22T09:20:13.164Z,98816.85
2023-04-22T09:23:15.673Z,98814.45
2023-04-22T09:26:25.566Z,98814.41
2023-04-22T09:29:31.389Z,98815.97
2023-04-22T09:32:33.381Z,98814.26
2023-04-22T09:35:39.362Z,98821.64
2023-04-22T09:38:51.538Z,98817.27
2023-04-22T09:41:55.969Z,98825.20
2023-04-22T09:45:00.008Z,98827.36
2023-04-22T09:48:08.396Z,98830.41
2023-04-22T09:51:18.925Z,98826.20
2023-04-22T09:54:23.207Z,98830.48
2023-04-22T09:57:27.388Z,98825.58
2023-04-22T10:00:30.706Z,98823.59
2023-04-22T10:05:13.347Z,98824.27
2023-04-22T10:08:18.173Z,98831.38
2023-04-22T10:11:21.956Z,98831.43
2023-04-22T10:14:25.020Z,98824.52
2023-04-22T10:17:31.438Z,98822.65
2023-04-22T10:20:40.753Z,98832.39
2023-04-22T10:23:48.702Z,98832.09
2023-04-22T10:27:13.872Z,98832.38
2023-04-22T10:30:28.684Z,98834.30
2023-04-22T10:33:40.824Z,98834.55
2023-04-22T10:37:08.892Z,98831.05
2023-04-22T10:40:18.667Z,98834.55
2023-04-22T10:43:20.873Z,98834.45
2023-04-22T10:46:39.336Z,98829.01
2023-04-22T10:49:43.613Z,98827.90
2023-04-22T10:52:57.912Z,98830.31
2023-04-22T10:56:01.546Z,98828.23
2023-04-22T10:59:16.415Z,98828.68
2023-04-22T11:02:21.097Z,98826.30
2023-04-22T11:05:26.484Z,98832.27
2023-04-22T11:08:28.581Z,98838.00
2023-04-22T11:11:30.553Z,98833.21
2023-04-22T11:14:33.509Z,98833.20
2023-04-22T11:17:37.572Z,98829.95
2023-04-22T11:20:39.899Z,98826.02
2023-04-22T11:23:52.427Z,98828.85
2023-04-22T11:26:56.540Z,98845.29
2023-04-22T11:30:08.857Z,98842.34
2023-04-22T11:33:15.102Z,98848.00
2023-04-22T11:36:19.147Z,98844.13
2023-04-22T11:39:21.182Z,98845.52
2023-04-22T11:42:23.451Z,98844.95
2023-04-22T11:45:26.346Z,98841.32
2023-04-22T11:48:28.522Z,98842.77
2023-04-22T11:51:31.437Z,98846.34
2023-04-22T11:54:37.362Z,98843.81
2023-04-22T11:57:40.660Z,98840.59
2023-04-22T12:00:50.027Z,98843.75
2023-04-22T12:03:59.825Z,98839.88
2023-04-22T12:07:03.465Z,98840.16
2023-04-22T12:10:07.468Z,98842.77
2023-04-22T12:13:10.551Z,98833.00
2023-04-22T12:16:20.185Z,98834.98
2023-04-22T12:28:54.435Z,98831.33
2023-04-22T12:31:56.661Z,98830.17
2023-04-22T12:34:58.652Z,98823.57
2023-04-22T12:38:01.303Z,98826.78
2023-04-22T12:41:03.868Z,98828.91
2023-04-22T12:44:05.847Z,98833.11
2023-04-22T12:47:09.404Z,98841.64
2023-04-22T12:50:11.331Z,98840.18
2023-04-22T12:53:14.702Z,98838.81
2023-04-22T12:56:16.547Z,98836.79
2023-04-22T12:59:18.961Z,98838.31
2023-04-22T13:02:20.878Z,98835.83
2023-04-22T13:05:22.774Z,98836.73
2023-04-22T13:08:25.918Z,98837.01
2023-04-22T13:11:29.328Z,98836.05
2023-04-22T13:14:31.191Z,98839.30
2023-04-22T13:17:34.457Z,98839.35
2023-04-22T13:20:36.341Z,98832.10
2023-04-22T13:23:39.408Z,98826.64
2023-04-22T13:30:35.864Z,98832.36
2023-04-22T13:33:38.849Z,98843.03
2023-04-22T13:36:42.135Z,98846.35
2023-04-22T13:39:46.680Z,98842.30
2023-04-22T13:42:48.735Z,98841.77
2023-04-22T13:45:50.920Z,98841.55
2023-04-22T13:48:54.404Z,98846.13
2023-04-22T13:51:56.889Z,98846.55
2023-04-22T13:54:58.864Z,98848.98
2023-04-22T13:58:01.053Z,98851.10
2023-04-22T14:04:50.723Z,98841.59
2023-04-22T14:07:54.860Z,98845.98
2023-04-22T14:10:59.629Z,98849.13
2023-04-22T14:14:03.100Z,98858.95
2023-04-22T14:17:07.101Z,98857.27
2023-04-22T14:20:11.320Z,98857.90
2023-04-22T14:23:15.320Z,98859.02
2023-04-22T14:26:18.534Z,98858.83
2023-04-22T14:29:21.924Z,98859.95
2023-04-22T14:32:25.975Z,98863.21
2023-04-22T14:35:30.039Z,98866.49
2023-04-22T14:38:33.751Z,98867.45
2023-04-22T14:41:37.266Z,98865.75
2023-04-22T14:44:40.752Z,98866.64
2023-04-22T14:47:44.279Z,98863.46
2023-04-22T14:50:47.959Z,98862.70
2023-04-22T14:53:51.871Z,98868.86
2023-04-22T14:56:56.250Z,98869.55
2023-04-22T15:00:18.231Z,98870.50
2023-04-22T15:03:21.761Z,98871.14
2023-04-22T15:06:25.916Z,98871.89
2023-04-22T15:09:30.175Z,98869.32
2023-04-22T15:12:34.008Z,98868.52
2023-04-22T15:15:38.846Z,98875.51
2023-04-22T15:18:42.171Z,98875.36
2023-04-22T15:21:46.982Z,98876.08
2023-04-22T15:24:50.812Z,98880.05
2023-04-22T15:33:54.428Z,98885.45
2023-04-22T15:36:56.506Z,98888.48
2023-04-22T15:39:58.957Z,98886.14
2023-04-22T15:43:01.585Z,98886.47
2023-04-22T15:46:03.701Z,98889.51
2023-04-22T15:49:05.728Z,98889.86
2023-04-22T15:52:09.727Z,98890.77
2023-04-22T15:55:11.836Z,98890.54
2023-04-22T15:58:13.908Z,98892.96
2023-04-22T16:01:20.150Z,98894.11
2023-04-22T16:04:25.075Z,98894.78
2023-04-22T16:07:31.304Z,98895.15
2023-04-22T16:10:34.676Z,98897.42
2023-04-22T16:13:38.649Z,98904.90
2023-04-22T16:16:42.570Z,98903.83
2023-04-22T16:19:45.317Z,98911.01
2023-04-22T16:22:47.390Z,98914.98
2023-04-22T16:25:50.887Z,98913.14
2023-04-22T16:28:54.565Z,98913.65
2023-04-22T16:31:56.738Z,98917.13
2023-04-22T16:34:59.412Z,98920.90
2023-04-22T16:38:03.123Z,98923.33
2023-04-22T16:41:05.327Z,98924.70
2023-04-22T16:44:09.202Z,98924.70
2023-04-22T16:47:11.786Z,98931.00
2023-04-22T16:50:13.757Z,98927.96
2023-04-22T16:53:15.946Z,98930.23
2023-04-22T16:56:18.274Z,98934.67
2023-04-22T16:59:20.362Z,98938.27
2023-04-22T17:02:22.446Z,98943.95
2023-04-22T17:05:25.092Z,98947.41
2023-04-22T17:08:28.417Z,98945.44
2023-04-22T17:11:32.370Z,98949.34
2023-04-22T17:14:34.569Z,98951.99
2023-04-22T17:17:36.432Z,98952.95
2023-04-22T17:20:39.686Z,98956.55
2023-04-22T17:23:45.640Z,98956.21
2023-04-22T17:26:49.560Z,98958.33
2023-04-22T17:29:51.800Z,98961.42
2023-04-22T17:32:54.885Z,98966.16
2023-04-22T17:35:57.062Z,98967.23
2023-04-22T17:38:59.130Z,98972.79
2023-04-22T17:42:02.223Z,98979.91
2023-04-22T17:45:06.647Z,98983.08
2023-04-22T17:48:09.247Z,98990.61
2023-04-22T17:51:11.615Z,98992.86
2023-04-22T17:54:17.027Z,98997.73
2023-04-22T17:57:19.109Z,99001.00
2023-04-22T18:00:24.084Z,99006.43
2023-04-22T18:04:51.325Z,99005.92
2023-04-22T18:08:01.884Z,99014.39
2023-04-22T18:11:05.908Z,99017.83
2023-04-22T18:14:09.251Z,99017.98
2023-04-22T18:17:14.166Z,99021.12
2023-04-22T18:20:20.187Z,99021.82
2023-04-22T18:23:23.692Z,99023.48
2023-04-22T18:26:26.932Z,99025.66
2023-04-22T18:29:30.673Z,99030.83
2023-04-22T18:32:33.926Z,99028.52
2023-04-22T18:35:37.937Z,99032.54
2023-04-22T18:38:43.604Z,99033.56
2023-04-22T18:55:34.945Z,99042.30
2023-04-22T18:58:38.529Z,99044.81
2023-04-22T19:01:40.850Z,99048.86
2023-04-22T19:18:49.975Z,99055.77
2023-04-22T19:21:53.345Z,99057.32
2023-04-22T19:24:57.225Z,99054.58
2023-04-22T19:27:59.655Z,99060.04
2023-04-22T19:31:06.979Z,99060.90
2023-04-22T19:34:10.166Z,99064.04
2023-04-22T19:37:18.272Z,99066.02
2023-04-22T19:40:24.242Z,99064.55
2023-04-22T19:43:26.805Z,99065.98
2023-04-22T19:46:31.077Z,99067.45
2023-04-22T19:49:35.655Z,99065.57
2023-04-22T19:52:42.163Z,99066.79
2023-04-22T19:55:46.138Z,99067.37
2023-04-22T19:58:48.722Z,99067.94
2023-04-22T20:01:51.141Z,99071.59
2023-04-22T20:04:54.367Z,99077.52
2023-04-22T20:08:00.949Z,99073.94
2023-04-22T20:11:03.529Z,99075.08
2023-04-22T20:14:08.666Z,99080.78
2023-04-22T20:17:11.199Z,99078.96
2023-04-22T20:20:15.153Z,99081.04
2023-04-22T20:23:22.463Z,99082.44
2023-04-22T20:26:24.657Z,99082.64
2023-04-22T20:29:26.911Z,99080.77
2023-04-22T20:32:29.239Z,99085.73
2023-04-22T20:35:31.597Z,99081.08
2023-04-22T20:38:37.085Z,99080.29
2023-04-22T20:41:39.357Z,99082.02
2023-04-22T20:44:41.868Z,99083.76
2023-04-22T20:47:45.771Z,99082.66
2023-04-22T20:50:47.748Z,99084.55
2023-04-22T20:53:51.634Z,99083.35
2023-04-22T20:56:53.436Z,99085.36
2023-04-22T20:59:55.365Z,99081.39
2023-04-22T21:02:59.108Z,99079.80
2023-04-22T21:06:02.045Z,99076.77
2023-04-22T21:09:08.080Z,99075.86
2023-04-22T21:12:11.057Z,99075.88
2023-04-22T21:15:14.102Z,99075.59
2023-04-22T21:18:21.180Z,99082.67
2023-04-22T21:21:30.105Z,99077.55
2023-04-22T21:24:34.531Z,99083.48
2023-04-22T21:27:37.004Z,99086.04
2023-04-22T21:30:39.219Z,99086.28
2023-04-22T21:33:42.268Z,99089.08
2023-04-22T21:41:05.668Z,99099.70
2023-04-22T21:44:07.835Z,99101.95
2023-04-22T21:47:11.036Z,99100.86
2023-04-22T21:50:13.167Z,99100.23
2023-04-22T21:53:18.952Z,99104.43
2023-04-22T21:56:21.534Z,99102.41
2023-04-22T21:59:24.422Z,99102.23
2023-04-22T22:04:52.862Z,99102.51
2023-04-22T22:07:56.041Z,99106.23
2023-04-22T22:10:59.751Z,99107.98
2023-04-22T22:14:03.218Z,99104.41
2023-04-22T22:17:09.812Z,99106.66
2023-04-22T22:20:18.154Z,99108.10
2023-04-22T22:23:21.813Z,99107.19
2023-04-22T22:26:25.053Z,99109.53
2023-04-22T22:29:28.594Z,99109.84
2023-04-22T22:32:33.024Z,99107.23
2023-04-22T22:35:38.117Z,99104.30
2023-04-22T22:38:41.260Z,99103.30
2023-04-22T22:41:44.523Z,99104.94
2023-04-22T22:44:48.928Z,99104.42
2023-04-22T22:47:53.723Z,99100.08
2023-04-22T22:50:58.019Z,99103.23
2023-04-22T22:54:01.660Z,99104.66
2023-04-22T22:57:05.916Z,99106.17
2023-04-22T23:00:12.131Z,99107.94
2023-04-22T23:03:19.672Z,99110.33
2023-04-22T23:06:23.620Z,99112.67
2023-04-22T23:09:29.185Z,99109.86
2023-04-22T23:12:32.386Z,99108.91
2023-04-22T23:15:37.917Z,99109.70
2023-04-22T23:18:41.382Z,99110.35
2023-04-22T23:21:46.135Z,99113.82
2023-04-22T23:24:49.981Z,99111.77
2023-04-22T23:27:53.731Z,99109.36
2023-04-22T23:30:58.792Z,99108.61
2023-04-22T23:34:06.220Z,99112.97
2023-04-22T23:37:13.760Z,99110.60
2023-04-22T23:40:17.204Z,99113.16
2023-04-22T23:43:20.505Z,99113.73
2023-04-22T23:46:23.701Z,99115.15
2023-04-22T23:49:26.904Z,99115.48
2023-04-22T23:52:30.345Z,99114.15
2023-04-22T23:55:35.739Z,99112.01
2023-04-22T23:58:39.640Z,99116.29
